Data for 11/03/2017

Time Sea-Level Adjusted Pressure Absolute Pressure Temperature Relative Humidity Dew Point   
(mb) (inHg) (mb) (inHg) (C) (F) (%) (C) (F)
00:05 1014 29.94 844 24.92 -4.3 24.2 88 -6.1 21
00:10 1014 29.94 843 24.89 -4.4 24.2 88 -6.1 21.1
00:15 1014 29.94 843 24.89 -4.4 24.1 88 -6 21.2
00:20 1014 29.94 843 24.89 -4.4 24.1 88 -6.1 21.1
00:25 1014 29.94 844 24.92 -4.3 24.2 88 -6.1 21
00:30 1014 29.94 844 24.92 -4.3 24.3 87 -6.2 20.9
00:35 1014 29.94 844 24.92 -4.3 24.3 87 -6.1 21
00:40 1014 29.94 844 24.92 -4.3 24.3 85 -6.3 20.6
00:45 1014 29.94 844 24.92 -4.2 24.5 85 -6.3 20.6
00:50 1014 29.94 844 24.92 -4.1 24.6 84 -6.5 20.3
00:55 1014 29.94 843 24.89 -4.1 24.6 84 -6.5 20.4
01:00 1014 29.94 843 24.89 -4.1 24.6 84 -6.4 20.5
01:05 1014 29.94 844 24.92 -4.1 24.6 85 -6.3 20.7
01:10 1014 29.94 844 24.92 -4.2 24.5 85 -6.3 20.7
01:15 1014 29.94 844 24.92 -4.2 24.5 85 -6.3 20.7
01:20 1014 29.94 844 24.92 -4.2 24.5 86 -6.2 20.8
01:25 1015 29.97 844 24.92 -4.2 24.5 86 -6.2 20.8
01:30 1015 29.97 844 24.92 -4.2 24.5 86 -6.2 20.8
01:35 1015 29.97 844 24.92 -4.2 24.5 86 -6.3 20.7
01:40 1015 29.97 844 24.92 -4.1 24.5 86 -6.2 20.8
01:45 1015 29.97 844 24.92 -4.2 24.5 86 -6.2 20.8
01:50 1014 29.94 844 24.92 -4.2 24.5 86 -6.2 20.9
01:55 1014 29.94 844 24.92 -4.1 24.6 86 -6.2 20.8
02:00 1014 29.94 844 24.92 -4.1 24.6 85 -6.3 20.7
02:05 1014 29.94 844 24.92 -4.1 24.6 85 -6.3 20.7
02:10 1014 29.94 843 24.89 -4.1 24.6 84 -6.4 20.6
02:15 1014 29.94 843 24.89 -4 24.7 84 -6.4 20.5
02:20 1014 29.94 844 24.92 -4 24.8 84 -6.4 20.5
02:25 1014 29.94 844 24.92 -4 24.8 84 -6.3 20.6
02:30 1014 29.94 843 24.89 -4 24.9 84 -6.3 20.6
02:35 1014 29.94 843 24.89 -4 24.9 84 -6.3 20.6
02:40 1014 29.94 843 24.89 -3.9 24.9 84 -6.3 20.6
02:45 1014 29.94 843 24.89 -3.9 25 83 -6.3 20.6
02:50 1014 29.94 843 24.89 -3.9 25 83 -6.4 20.5
02:55 1014 29.94 843 24.89 -3.9 25.1 83 -6.4 20.5
03:00 1014 29.94 843 24.89 -3.8 25.2 83 -6.3 20.6
03:05 1014 29.94 843 24.89 -3.8 25.2 83 -6.3 20.7
03:10 1014 29.94 843 24.89 -3.8 25.1 83 -6.3 20.6
03:15 1014 29.94 843 24.89 -3.8 25.1 83 -6.3 20.7
03:20 1014 29.94 843 24.89 -3.8 25.1 84 -6.2 20.9
03:25 1014 29.94 843 24.89 -3.9 25 84 -6.2 20.9
03:30 1013 29.91 843 24.89 -3.9 25 84 -6.2 20.9
03:35 1013 29.91 842 24.86 -3.9 24.9 85 -6 21.1
03:40 1013 29.91 842 24.86 -4 24.8 85 -6.1 21.1
03:45 1013 29.91 842 24.86 -4 24.8 85 -6.1 20.9
03:50 1013 29.91 842 24.86 -4 24.9 84 -6.3 20.7
03:55 1013 29.91 842 24.86 -3.9 24.9 83 -6.4 20.5
04:00 1013 29.91 842 24.86 -3.9 25 84 -6.3 20.7
04:05 1013 29.91 842 24.86 -3.9 25 82 -6.5 20.3
04:10 1013 29.91 842 24.86 -3.8 25.1 82 -6.5 20.4
04:15 1013 29.91 842 24.86 -3.8 25.2 82 -6.4 20.5
04:20 1013 29.91 842 24.86 -3.8 25.2 84 -6.1 21.1
04:25 1013 29.91 842 24.86 -3.8 25.2 86 -5.8 21.5
04:30 1013 29.91 842 24.86 -3.8 25.1 87 -5.7 21.8
04:35 1013 29.91 842 24.86 -3.8 25.2 88 -5.5 22
04:40 1013 29.91 842 24.86 -3.8 25.1 87 -5.8 21.6
04:45 1013 29.91 842 24.86 -3.8 25.1 84 -6.1 21.1
04:50 1013 29.91 842 24.86 -3.8 25.1 83 -6.3 20.7
04:55 1013 29.91 842 24.86 -3.8 25.1 81 -6.7 19.9
05:00 1013 29.91 842 24.86 -3.8 25.1 83 -6.4 20.6
05:05 1013 29.91 842 24.86 -3.8 25.2 84 -6.1 21
05:10 1013 29.91 842 24.86 -3.8 25.3 86 -5.8 21.6
05:15 1013 29.91 842 24.86 -3.8 25.2 84 -6.1 21
05:20 1013 29.91 842 24.86 -3.8 25.2 83 -6.3 20.7
05:25 1013 29.91 842 24.86 -3.8 25.2 82 -6.5 20.4
05:30 1013 29.91 842 24.86 -3.8 25.2 80 -6.7 19.9
05:35 1013 29.91 842 24.86 -3.8 25.2 81 -6.6 20
05:40 1013 29.91 842 24.86 -3.8 25.2 81 -6.6 20.1
05:45 1013 29.91 842 24.86 -3.7 25.3 81 -6.5 20.3
05:50 1013 29.91 843 24.89 -3.8 25.2 81 -6.6 20.1
05:55 1013 29.91 842 24.86 -3.8 25.1 81 -6.6 20.2
06:00 1013 29.91 842 24.86 -3.8 25.1 80 -6.7 19.9
06:05 1013 29.91 843 24.89 -3.9 25 79 -6.9 19.5
06:10 1013 29.91 843 24.89 -4 24.9 80 -7 19.4
06:15 1013 29.91 843 24.89 -4 24.8 80 -7 19.3
06:20 1013 29.91 843 24.89 -4 24.8 80 -7 19.4
06:25 1013 29.91 843 24.89 -4.1 24.6 80 -7 19.4
06:30 1014 29.94 843 24.89 -4.1 24.7 82 -6.7 19.9
06:35 1014 29.94 843 24.89 -4 24.7 82 -6.7 20
06:40 1014 29.94 843 24.89 -4 24.8 86 -6 21.2
06:45 1014 29.94 843 24.89 -4 24.8 88 -5.7 21.8
06:50 1014 29.94 843 24.89 -4.4 24.2 91 -5.6 21.8
06:55 1014 29.94 843 24.89 -4.5 23.8 92 -5.7 21.8
07:00 1014 29.94 843 24.89 -4.5 23.8 92 -5.6 21.9
07:05 1014 29.94 843 24.89 -4.6 23.7 87 -6.4 20.5
07:10 1014 29.94 843 24.89 -4.5 23.8 84 -6.8 19.8
07:15 1014 29.94 843 24.89 -4.5 23.9 84 -6.8 19.7
07:20 1014 29.94 843 24.89 -4.5 24 83 -6.9 19.6
07:25 1014 29.94 843 24.89 -4.5 24 83 -6.9 19.6
07:30 1013 29.91 843 24.89 -4.4 24 83 -6.9 19.7
07:35 1013 29.91 843 24.89 -4.4 24 83 -6.9 19.6
07:40 1013 29.91 843 24.89 -4.5 23.9 85 -6.7 19.9
07:45 1013 29.91 843 24.89 -4.6 23.8 85 -6.7 19.9
07:50 1013 29.91 843 24.89 -4.6 23.6 87 -6.6 20.2
07:55 1013 29.91 843 24.89 -4.7 23.5 87 -6.6 20.2
08:00 1013 29.91 843 24.89 -4.7 23.5 86 -6.8 19.8
08:05 1013 29.91 843 24.89 -4.7 23.5 85 -6.8 19.8
08:10 1013 29.91 843 24.89 -4.6 23.7 84 -6.9 19.6
08:15 1013 29.91 842 24.86 -4.5 23.9 84 -6.8 19.7
08:20 1013 29.91 842 24.86 -4.5 23.9 84 -6.8 19.8
08:25 1013 29.91 842 24.86 -4.4 24 83 -6.9 19.6
08:30 1013 29.91 842 24.86 -4.4 24.2 82 -7 19.4
08:35 1013 29.91 842 24.86 -4.3 24.3 81 -7.1 19.3
08:40 1013 29.91 842 24.86 -4.2 24.5 80 -7.1 19.1
08:45 1013 29.91 842 24.86 -4.1 24.6 80 -7.1 19.3
08:50 1013 29.91 842 24.86 -4.1 24.6 79 -7.2 19
08:55 1013 29.91 842 24.86 -4 24.7 80 -7.1 19.3
09:00 1013 29.91 842 24.86 -4 24.7 80 -7 19.4
09:05 1013 29.91 842 24.86 -4 24.8 79 -7.1 19.2
09:10 1013 29.91 842 24.86 -4 24.8 79 -7.1 19.3
09:15 1013 29.91 842 24.86 -3.9 24.9 79 -7 19.4
09:20 1013 29.91 842 24.86 -3.8 25.1 78 -7.1 19.2
09:25 1013 29.91 842 24.86 -3.7 25.4 78 -6.9 19.5
09:30 1013 29.91 842 24.86 -3.5 25.8 83 -5.9 21.3
09:35 1013 29.91 842 24.86 -3.4 25.8 84 -5.7 21.7
09:40 1013 29.91 843 24.89 -3.9 25 88 -5.6 21.8
09:45 1014 29.94 843 24.89 -3.9 25 87 -5.8 21.5
09:50 1014 29.94 843 24.89 -4 24.8 87 -5.8 21.5
09:55 1014 29.94 843 24.89 -3.8 25.1 86 -5.8 21.5
10:00 1014 29.94 843 24.89 -3.9 25 87 -5.8 21.6
10:05 1014 29.94 843 24.89 -3.9 24.9 86 -5.9 21.4
10:10 1014 29.94 843 24.89 -4.1 24.6 86 -6.2 20.9
10:15 1014 29.94 843 24.89 -4.4 24 87 -6.3 20.6
10:20 1014 29.94 843 24.89 -4.1 24.6 84 -6.4 20.5
10:25 1014 29.94 843 24.89 -3.9 24.9 84 -6.3 20.7
10:30 1014 29.94 843 24.89 -3.9 25 84 -6.2 20.8
10:35 1014 29.94 843 24.89 -3.8 25.1 82 -6.5 20.3
10:40 1014 29.94 843 24.89 -4 24.7 83 -6.4 20.4
10:45 1014 29.94 843 24.89 -4.2 24.4 86 -6.2 20.8
10:50 1014 29.94 843 24.89 -4 24.9 85 -6.2 20.9
10:55 1013 29.91 843 24.89 -3.7 25.3 85 -5.9 21.3
11:00 1013 29.91 842 24.86 -3.1 26.4 82 -5.8 21.5
11:05 1013 29.91 842 24.86 -2.8 26.9 80 -5.8 21.5
11:10 1013 29.91 842 24.86 -2.5 27.5 79 -5.6 21.9
11:15 1013 29.91 842 24.86 -2.6 27.3 79 -5.8 21.6
11:20 1013 29.91 842 24.86 -2.8 27 77 -6.3 20.7
11:25 1013 29.91 842 24.86 -2.7 27.2 76 -6.4 20.6
11:30 1013 29.91 842 24.86 -2.5 27.5 74 -6.5 20.2
11:35 1013 29.91 842 24.86 -2.4 27.6 74 -6.5 20.3
11:40 1013 29.91 842 24.86 -2.4 27.7 74 -6.4 20.5
11:45 1013 29.91 842 24.86 -2.2 28 73 -6.4 20.5
11:50 1013 29.91 842 24.86 -2.3 27.9 76 -5.9 21.4
11:55 1012 29.88 842 24.86 -2.7 27.1 82 -5.4 22.3
12:00 1012 29.88 842 24.86 -3.1 26.5 82 -5.8 21.6
12:05 1012 29.88 841 24.83 -3.3 26 83 -5.8 21.5
12:10 1012 29.88 841 24.83 -3.4 25.9 82 -6 21.3
12:15 1012 29.88 841 24.83 -2.9 26.8 79 -6 21.1
12:20 1012 29.88 841 24.83 -2.5 27.4 79 -5.7 21.8
12:25 1012 29.88 841 24.83 -2.7 27.2 78 -6 21.2
12:30 1012 29.88 841 24.83 -3 26.7 79 -6.1 21
12:35 1012 29.88 841 24.83 -2.7 27.1 77 -6.2 20.9
12:40 1012 29.88 841 24.83 -2.7 27.1 76 -6.4 20.5
12:45 1012 29.88 841 24.83 -3.8 25.2 83 -6.2 20.9
12:50 1012 29.88 841 24.83 -3.4 25.9 79 -6.5 20.3
12:55 1012 29.88 841 24.83 -3.1 26.4 79 -6.3 20.6
13:00 1012 29.88 841 24.83 -3.3 26.1 79 -6.3 20.6
13:05 1011 29.85 841 24.83 -2.7 27.1 75 -6.5 20.4
13:10 1011 29.85 841 24.83 -2.9 26.8 78 -6.2 20.8
13:15 1011 29.85 841 24.83 -2.5 27.5 77 -6.1 21.1
13:20 1011 29.85 841 24.83 -2.2 28.1 75 -6 21.2
13:25 1011 29.85 840 24.81 -2.7 27.1 78 -6 21.2
13:30 1011 29.85 840 24.81 -3 26.7 79 -6.2 20.9
13:35 1011 29.85 840 24.81 -3.1 26.4 79 -6.2 20.9
13:40 1011 29.85 840 24.81 -3.2 26.2 80 -6.2 20.8
13:45 1011 29.85 841 24.83 -3.7 25.3 81 -6.4 20.4
13:50 1011 29.85 840 24.81 -3.6 25.5 81 -6.4 20.4
13:55 1011 29.85 840 24.81 -3.4 25.9 80 -6.4 20.6
14:00 1011 29.85 840 24.81 -3.5 25.6 81 -6.3 20.6
14:05 1011 29.85 840 24.81 -3.5 25.6 81 -6.3 20.7
14:10 1011 29.85 840 24.81 -3.4 25.8 81 -6.2 20.8
14:15 1011 29.85 840 24.81 -3.5 25.7 83 -6 21.1
14:20 1011 29.85 840 24.81 -3.7 25.4 82 -6.2 20.8
14:25 1011 29.85 840 24.81 -3.3 26 81 -6.2 20.9
14:30 1011 29.85 840 24.81 -3.2 26.2 80 -6.3 20.7
14:35 1011 29.85 840 24.81 -3.7 25.4 83 -6.2 20.9
14:40 1011 29.85 840 24.81 -3.5 25.6 82 -6.1 21
14:45 1011 29.85 840 24.81 -3.5 25.7 82 -6.2 20.9
14:50 1011 29.85 840 24.81 -3.4 25.8 81 -6.2 20.8
14:55 1011 29.85 841 24.83 -3.6 25.5 82 -6.2 20.9
15:00 1011 29.85 841 24.83 -3.7 25.4 83 -6.2 20.9
15:05 1011 29.85 840 24.81 -3.7 25.4 83 -6.1 21
15:10 1011 29.85 840 24.81 -3.7 25.4 83 -6.1 21
15:15 1011 29.85 840 24.81 -3.8 25.1 84 -6.2 20.9
15:20 1011 29.85 840 24.81 -4.4 24.1 87 -6.3 20.7
15:25 1011 29.85 840 24.81 -4.6 23.7 88 -6.3 20.7
15:30 1011 29.85 840 24.81 -4.4 24.1 87 -6.3 20.7
15:35 1011 29.85 840 24.81 -4.4 24 87 -6.3 20.6
15:40 1011 29.85 840 24.81 -4.3 24.3 86 -6.3 20.7
15:45 1010 29.83 840 24.81 -4.1 24.6 85 -6.3 20.6
15:50 1010 29.83 840 24.81 -4 24.8 85 -6.2 20.9
15:55 1010 29.83 839 24.78 -4 24.9 85 -6.2 20.9
16:00 1010 29.83 839 24.78 -4 24.8 85 -6.2 20.8
16:05 1010 29.83 839 24.78 -3.8 25.2 84 -6.1 21.1
16:10 1010 29.83 839 24.78 -3.5 25.8 83 -6 21.2
16:15 1010 29.83 840 24.81 -3.5 25.8 83 -6 21.2
16:20 1011 29.85 840 24.81 -3.7 25.4 83 -6.1 21
16:25 1011 29.85 840 24.81 -3.8 25.2 84 -6 21.1
16:30 1011 29.85 840 24.81 -3.7 25.3 84 -6 21.2
16:35 1011 29.85 840 24.81 -3.9 25 85 -6 21.1
16:40 1011 29.85 841 24.83 -4.1 24.6 86 -6.1 21
16:45 1012 29.88 841 24.83 -4.3 24.3 87 -6.2 20.9
16:50 1012 29.88 841 24.83 -4.5 24 87 -6.2 20.8
16:55 1012 29.88 841 24.83 -4.7 23.6 88 -6.4 20.5
17:00 1012 29.88 841 24.83 -4.8 23.3 88 -6.5 20.3
17:05 1012 29.88 841 24.83 -5 23.1 88 -6.7 20
17:10 1012 29.88 841 24.83 -5.2 22.7 88 -6.8 19.7
17:15 1012 29.88 841 24.83 -5.2 22.6 88 -6.9 19.5
17:20 1012 29.88 841 24.83 -5.2 22.6 87 -7.1 19.3
17:25 1012 29.88 841 24.83 -5.3 22.5 87 -7.1 19.2
17:30 1012 29.88 841 24.83 -5.3 22.5 87 -7.1 19.1
17:35 1012 29.88 841 24.83 -5.5 22.1 86 -7.5 18.5
17:40 1011 29.85 841 24.83 -5.9 21.4 89 -7.5 18.5
17:45 1012 29.88 841 24.83 -5.8 21.5 89 -7.4 18.8
17:50 1012 29.88 841 24.83 -5.8 21.6 89 -7.4 18.7
17:55 1012 29.88 841 24.83 -5.9 21.4 89 -7.4 18.6
18:00 1012 29.88 842 24.86 -5.7 21.8 89 -7.3 18.9
18:05 1013 29.91 842 24.86 -5.7 21.7 88 -7.4 18.8
18:10 1013 29.91 842 24.86 -5.6 21.9 88 -7.3 18.9
18:15 1013 29.91 842 24.86 -5.5 22.1 88 -7.1 19.1
18:20 1013 29.91 842 24.86 -5.5 22 88 -7.2 19
18:25 1013 29.91 842 24.86 -5.6 21.9 88 -7.3 18.8
18:30 1013 29.91 842 24.86 -5.8 21.6 88 -7.5 18.6
18:35 1013 29.91 842 24.86 -6 21.3 88 -7.6 18.3
18:40 1013 29.91 842 24.86 -6.4 20.4 87 -8.2 17.2
18:45 1013 29.91 842 24.86 -6.8 19.7 89 -8.4 16.9
18:50 1012 29.88 842 24.86 -6.9 19.6 89 -8.4 16.8
18:55 1012 29.88 842 24.86 -6.9 19.6 89 -8.3 17
19:00 1013 29.91 842 24.86 -6.8 19.8 89 -8.2 17.2
19:05 1013 29.91 842 24.86 -6.6 20 88 -8.2 17.2
19:10 1012 29.88 842 24.86 -6.7 19.9 89 -8.3 17.1
19:15 1012 29.88 842 24.86 -6.7 20 89 -8.1 17.4
19:20 1013 29.91 842 24.86 -6.5 20.2 90 -8 17.7
19:25 1013 29.91 842 24.86 -6.4 20.4 89 -8 17.7
19:30 1013 29.91 842 24.86 -6.4 20.5 89 -8 17.7
19:35 1012 29.88 842 24.86 -6.6 20.1 89 -8.1 17.4
19:40 1012 29.88 842 24.86 -6.7 20 90 -8.1 17.4
19:45 1012 29.88 842 24.86 -6.6 20 90 -8.1 17.5
19:50 1012 29.88 841 24.83 -6.7 20 90 -8 17.5
19:55 1012 29.88 841 24.83 -6.6 20.1 90 -8 17.6
20:00 1012 29.88 841 24.83 -6.6 20.1 90 -8 17.6
20:05 1012 29.88 841 24.83 -6.7 20 90 -8.1 17.4
20:10 1012 29.88 841 24.83 -6.7 20 90 -8 17.5
20:15 1012 29.88 841 24.83 -6.6 20.1 90 -8 17.5
20:20 1012 29.88 841 24.83 -6.6 20.2 90 -8 17.6
20:25 1012 29.88 841 24.83 -6.5 20.3 90 -7.9 17.8
20:30 1011 29.85 841 24.83 -6.4 20.5 90 -7.8 18
20:35 1011 29.85 841 24.83 -6.3 20.7 90 -7.6 18.2
20:40 1011 29.85 841 24.83 -6.2 20.8 91 -7.5 18.4
20:45 1011 29.85 840 24.81 -6.1 21 91 -7.4 18.7
20:50 1011 29.85 840 24.81 -6 21.3 91 -7.3 18.9
20:55 1011 29.85 840 24.81 -5.9 21.4 91 -7.2 19.1
21:00 1011 29.85 840 24.81 -5.8 21.5 91 -7.1 19.3
21:05 1011 29.85 840 24.81 -5.8 21.6 91 -7 19.4
21:10 1011 29.85 841 24.83 -5.7 21.8 91 -6.9 19.6
21:15 1012 29.88 841 24.83 -5.6 21.9 91 -6.8 19.7
21:20 1012 29.88 841 24.83 -5.5 22 91 -6.7 19.9
21:25 1012 29.88 841 24.83 -5.5 22.1 91 -6.7 19.9
21:30 1012 29.88 841 24.83 -5.5 22.2 91 -6.7 20
21:35 1012 29.88 841 24.83 -5.4 22.2 92 -6.6 20.2
21:40 1012 29.88 841 24.83 -5.3 22.5 92 -6.4 20.4
21:45 1012 29.88 841 24.83 -5.5 22 90 -7 19.4
21:50 1012 29.88 841 24.83 -6 21.1 91 -7.3 18.8
21:55 1012 29.88 841 24.83 -6.2 20.9 91 -7.5 18.5
22:00 1012 29.88 841 24.83 -6.3 20.7 91 -7.5 18.4
22:05 1012 29.88 841 24.83 -6.2 20.8 91 -7.5 18.5
22:10 1012 29.88 841 24.83 -6.3 20.6 91 -7.6 18.3
22:15 1012 29.88 841 24.83 -6.3 20.7 91 -7.4 18.6
22:20 1011 29.85 840 24.81 -6.2 20.9 91 -7.4 18.7
22:25 1011 29.85 840 24.81 -6.2 20.9 91 -7.4 18.7
22:30 1011 29.85 840 24.81 -6.2 20.8 91 -7.5 18.4
22:35 1011 29.85 840 24.81 -6.2 20.8 91 -7.5 18.5
22:40 1011 29.85 840 24.81 -6.2 20.9 91 -7.4 18.7
22:45 1011 29.85 840 24.81 -6.1 21 91 -7.3 18.8
22:50 1011 29.85 840 24.81 -6 21.2 92 -7.2 19.1
22:55 1011 29.85 840 24.81 -5.8 21.6 92 -7 19.5
23:00 1011 29.85 840 24.81 -5.6 21.8 92 -6.8 19.8
23:05 1011 29.85 840 24.81 -5.4 22.3 92 -6.5 20.4
23:10 1011 29.85 840 24.81 -5.1 22.8 92 -6.3 20.7
23:15 1011 29.85 840 24.81 -5.3 22.4 90 -6.8 19.8
23:20 1011 29.85 840 24.81 -5.8 21.5 90 -7.3 18.9
23:25 1011 29.85 840 24.81 -6.2 20.9 90 -7.6 18.4
23:30 1011 29.85 840 24.81 -6.2 20.8 90 -7.6 18.3
23:35 1011 29.85 840 24.81 -6.3 20.6 90 -7.7 18.1
23:40 1011 29.85 840 24.81 -6.5 20.3 90 -8 17.7
23:45 1011 29.85 841 24.83 -6.6 20 90 -8.1 17.5
23:50 1011 29.85 840 24.81 -6.7 19.9 90 -8.2 17.3
23:55 1011 29.85 840 24.81 -6.8 19.8 90 -8.2 17.2
24:00 1011 29.85 841 24.83 -6.8 19.7 89 -8.3 17